Time;durP1;ratioP1;P1;durP2;ratioP2;P2;SDS_P1;SDS_P2;PMS_P1;PMS_P2;Temp;Humidity;BMP_temperature;BMP_pressure;BME280_temperature;BME280_humidity;BME280_pressure;Samples;Min_cycle;Max_cycle;Signal;HPM_P1;HPM_P2
2022/01/31 00:02:10;;;;;;;7.25;4.20;;;-1.10;99.90;;;;;;4942470;28;20035;-49
2022/01/31 00:04:36;;;;;;;9.45;4.80;;;-1.10;99.90;;;;;;4947838;28;20106;-49
2022/01/31 00:07:03;;;;;;;7.57;4.80;;;-1.10;99.90;;;;;;4942404;28;20035;-49
2022/01/31 00:09:29;;;;;;;8.23;3.72;;;-1.10;99.90;;;;;;4934253;28;20038;-50
2022/01/31 00:12:02;;;;;;;8.05;4.75;;;-1.00;99.90;;;;;;4940404;28;20035;-49
2022/01/31 00:14:45;;;;;;;10.13;4.93;;;-1.00;99.90;;;;;;4938908;28;20035;-49
2022/01/31 00:17:13;;;;;;;6.72;4.13;;;-1.00;99.90;;;;;;4944200;28;20039;-50
2022/01/31 00:19:40;;;;;;;14.52;5.00;;;-1.00;99.90;;;;;;4948797;28;20027;-49
2022/01/31 00:22:08;;;;;;;14.85;4.93;;;-0.90;99.90;;;;;;4946723;28;20035;-49
2022/01/31 00:24:34;;;;;;;5.05;3.03;;;-0.90;99.90;;;;;;4944829;28;20033;-49
2022/01/31 00:27:05;;;;;;;5.43;3.65;;;-0.90;99.90;;;;;;4942576;28;20035;-48
2022/01/31 00:29:30;;;;;;;10.27;5.15;;;-0.80;99.90;;;;;;4944092;28;20053;-51
2022/01/31 00:31:56;;;;;;;6.93;4.35;;;-0.80;99.90;;;;;;4942526;28;20122;-50
2022/01/31 00:34:22;;;;;;;11.80;5.28;;;-0.90;99.90;;;;;;4941925;28;20058;-50
2022/01/31 00:36:48;;;;;;;8.02;4.13;;;-0.90;99.90;;;;;;4946122;28;20503;-49
2022/01/31 00:39:14;;;;;;;4.70;4.07;;;-0.80;99.90;;;;;;4943009;28;20050;-49
2022/01/31 00:41:40;;;;;;;12.20;4.30;;;-0.80;99.90;;;;;;4945750;28;20104;-48
2022/01/31 00:46:44;;;;;;;12.40;4.75;;;-0.80;99.90;;;;;;4946687;28;20520;-49
2022/01/31 00:49:16;;;;;;;10.23;5.68;;;-0.70;99.90;;;;;;4943404;28;20073;-49
2022/01/31 00:51:42;;;;;;;10.18;4.15;;;-0.70;99.90;;;;;;4943236;28;20549;-49
2022/01/31 00:54:08;;;;;;;17.33;3.92;;;-0.70;99.90;;;;;;4944501;28;20038;-48
2022/01/31 00:56:34;;;;;;;8.30;4.28;;;-0.60;99.90;;;;;;4943728;28;20054;-49
2022/01/31 00:58:59;;;;;;;8.75;3.65;;;-0.60;99.90;;;;;;4944512;28;20038;-49
2022/01/31 01:01:25;;;;;;;5.28;3.63;;;-0.60;99.90;;;;;;4945189;28;20056;-49
2022/01/31 01:03:51;;;;;;;6.65;3.38;;;-0.60;99.90;;;;;;4944708;28;20109;-49
2022/01/31 01:06:16;;;;;;;9.40;3.90;;;-0.50;99.90;;;;;;4946725;28;20499;-49
2022/01/31 01:08:42;;;;;;;7.50;3.90;;;-0.50;99.90;;;;;;4945433;28;20040;-49
2022/01/31 01:11:08;;;;;;;7.30;3.30;;;-0.50;99.90;;;;;;4942397;28;20393;-49
2022/01/31 01:13:34;;;;;;;8.48;3.80;;;-0.40;99.90;;;;;;4941087;28;20034;-50
2022/01/31 01:15:59;;;;;;;4.97;3.15;;;-0.40;99.90;;;;;;4944554;28;20027;-49
2022/01/31 01:18:25;;;;;;;10.35;4.70;;;-0.40;99.90;;;;;;4944336;28;20027;-50
2022/01/31 01:20:51;;;;;;;8.25;3.65;;;-0.30;99.90;;;;;;4943443;28;20561;-49
2022/01/31 01:23:16;;;;;;;8.07;3.50;;;-0.30;99.90;;;;;;4942060;28;22682;-52
2022/01/31 01:25:42;;;;;;;6.45;3.38;;;-0.20;99.90;;;;;;4947134;28;20043;-51
2022/01/31 01:28:08;;;;;;;7.97;3.55;;;-0.20;99.90;;;;;;4946464;28;20035;-49
2022/01/31 01:30:34;;;;;;;7.97;4.00;;;-0.10;99.90;;;;;;4943580;28;20431;-51
2022/01/31 01:33:05;;;;;;;6.95;4.05;;;-0.10;99.90;;;;;;4946998;28;20030;-49
2022/01/31 01:35:33;;;;;;;7.20;3.83;;;-0.10;99.90;;;;;;4945455;28;20551;-49
2022/01/31 01:38:05;;;;;;;9.25;3.33;;;-0.10;99.90;;;;;;4947657;28;20035;-49
2022/01/31 01:40:32;;;;;;;7.43;3.75;;;-0.10;99.90;;;;;;4945650;28;20130;-49
2022/01/31 01:42:57;;;;;;;5.72;3.05;;;-0.10;99.90;;;;;;4943773;28;20394;-49
2022/01/31 01:45:25;;;;;;;6.88;4.05;;;-0.10;99.90;;;;;;4945834;28;20113;-50
2022/01/31 01:47:50;;;;;;;6.70;4.05;;;-0.20;99.90;;;;;;4942198;28;20126;-49
2022/01/31 01:50:16;;;;;;;8.23;4.55;;;-0.20;99.90;;;;;;4946445;28;20051;-50
2022/01/31 01:52:42;;;;;;;4.63;3.78;;;-0.20;99.90;;;;;;4948069;28;20035;-50
2022/01/31 01:55:08;;;;;;;7.75;3.38;;;-0.10;99.90;;;;;;4946737;28;20038;-49
2022/01/31 01:57:34;;;;;;;8.63;4.35;;;-0.10;99.90;;;;;;4950782;28;20031;-49
2022/01/31 02:00:00;;;;;;;9.90;3.67;;;-0.10;99.90;;;;;;4952630;28;20038;-50
2022/01/31 02:02:26;;;;;;;4.40;3.03;;;0.00;99.90;;;;;;4953245;28;20031;-49
2022/01/31 02:04:51;;;;;;;11.40;4.18;;;0.00;99.90;;;;;;4952845;28;20195;-49
2022/01/31 02:07:19;;;;;;;8.75;4.22;;;0.00;99.90;;;;;;4949550;28;20163;-49
2022/01/31 02:09:53;;;;;;;5.57;4.22;;;0.10;99.90;;;;;;4952031;28;20037;-49
2022/01/31 02:12:19;;;;;;;5.18;3.72;;;0.10;99.90;;;;;;4949944;28;20043;-49
2022/01/31 02:14:44;;;;;;;5.30;3.60;;;0.10;99.90;;;;;;4950663;28;20096;-49
2022/01/31 02:17:10;;;;;;;9.80;3.67;;;0.10;99.90;;;;;;4950566;28;20082;-50
2022/01/31 02:19:36;;;;;;;8.45;3.58;;;0.10;99.90;;;;;;4947056;28;20046;-50
2022/01/31 02:22:02;;;;;;;5.32;3.25;;;0.10;99.90;;;;;;4949278;28;20038;-49
2022/01/31 02:24:30;;;;;;;9.52;3.53;;;0.10;99.90;;;;;;4947330;28;20035;-49
2022/01/31 02:26:56;;;;;;;9.70;4.13;;;0.20;99.90;;;;;;4950168;28;20082;-49
2022/01/31 02:29:22;;;;;;;6.85;3.20;;;0.20;99.90;;;;;;4947900;28;20381;-49
2022/01/31 02:31:48;;;;;;;7.10;3.80;;;0.30;99.90;;;;;;4949392;28;20043;-48
2022/01/31 02:34:15;;;;;;;8.50;4.40;;;0.30;99.90;;;;;;4949783;28;20027;-49
2022/01/31 02:36:41;;;;;;;7.30;3.20;;;0.30;99.90;;;;;;4950418;28;20096;-48
2022/01/31 02:39:08;;;;;;;5.35;3.03;;;0.40;99.90;;;;;;4947373;28;20104;-49
2022/01/31 02:41:44;;;;;;;9.48;4.53;;;0.40;99.90;;;;;;4949123;28;20035;-49
2022/01/31 02:44:15;;;;;;;8.93;4.10;;;0.40;99.90;;;;;;4959964;28;20100;-50
2022/01/31 02:46:48;;;;;;;4.30;3.42;;;0.50;99.90;;;;;;4949206;28;20086;-49
2022/01/31 02:49:17;;;;;;;9.82;3.33;;;0.50;99.90;;;;;;4947931;28;20054;-49
2022/01/31 02:51:47;;;;;;;;;;;0.50;99.90;;;;;;4951363;28;20054;-50
2022/01/31 02:54:13;;;;;;;4.88;3.03;;;0.50;99.90;;;;;;4949385;28;21780;-50
2022/01/31 02:56:40;;;;;;;4.18;2.65;;;0.50;99.90;;;;;;4945561;28;20114;-49
2022/01/31 02:59:06;;;;;;;8.60;3.38;;;0.60;99.90;;;;;;4943312;28;20464;-49
2022/01/31 03:01:36;;;;;;;3.92;3.33;;;0.60;99.90;;;;;;4944300;28;20119;-49
2022/01/31 03:04:02;;;;;;;10.77;3.78;;;0.60;99.90;;;;;;4942648;28;20042;-51
2022/01/31 03:06:27;;;;;;;5.80;4.07;;;0.60;99.90;;;;;;4944930;28;20039;-48
2022/01/31 03:08:53;;;;;;;6.70;3.40;;;0.60;99.90;;;;;;4946230;28;20047;-49
2022/01/31 03:11:19;;;;;;;3.00;2.70;;;0.60;99.90;;;;;;4942641;28;20039;-51
2022/01/31 03:13:45;;;;;;;7.47;4.03;;;0.60;99.90;;;;;;4948700;28;20041;-50
2022/01/31 03:16:10;;;;;;;7.63;3.20;;;0.60;99.90;;;;;;4945082;28;20889;-49
2022/01/31 03:18:36;;;;;;;4.18;2.90;;;0.60;99.90;;;;;;4947378;28;20043;-48
2022/01/31 03:21:01;;;;;;;10.50;3.25;;;0.60;99.90;;;;;;4948187;28;20027;-49
2022/01/31 03:23:27;;;;;;;15.57;5.07;;;0.60;99.90;;;;;;4944595;28;20027;-51
2022/01/31 03:25:53;;;;;;;5.45;2.90;;;0.60;99.90;;;;;;4946455;28;20358;-49
2022/01/31 03:28:18;;;;;;;9.13;4.00;;;0.60;99.90;;;;;;4942910;28;20059;-48
2022/01/31 03:30:44;;;;;;;4.97;3.42;;;0.60;99.90;;;;;;4939603;28;20028;-49
2022/01/31 03:33:10;;;;;;;3.80;3.40;;;0.60;99.90;;;;;;4943322;28;20031;-49
2022/01/31 03:35:35;;;;;;;4.55;3.33;;;0.60;99.90;;;;;;4944538;28;20039;-49
2022/01/31 03:38:01;;;;;;;9.45;4.03;;;0.60;99.90;;;;;;4944156;28;20540;-49
2022/01/31 03:40:27;;;;;;;7.75;3.72;;;0.70;99.90;;;;;;4945407;28;20032;-50
2022/01/31 03:42:52;;;;;;;11.25;3.80;;;0.70;99.90;;;;;;4944234;28;20408;-50
2022/01/31 03:45:19;;;;;;;4.03;3.30;;;0.70;99.90;;;;;;4942006;28;20062;-49
2022/01/31 03:47:46;;;;;;;7.68;4.38;;;0.70;99.90;;;;;;4944726;28;20043;-49
2022/01/31 03:50:15;;;;;;;10.25;3.15;;;0.70;99.90;;;;;;4944280;28;20126;-49
2022/01/31 03:52:42;;;;;;;9.38;3.50;;;0.80;99.90;;;;;;4943650;28;20043;-49
2022/01/31 03:55:09;;;;;;;3.95;2.70;;;0.80;99.90;;;;;;4943591;28;20058;-50
2022/01/31 03:57:35;;;;;;;7.60;3.90;;;0.80;99.90;;;;;;4944175;28;20106;-49
2022/01/31 04:00:04;;;;;;;11.13;3.42;;;0.80;99.90;;;;;;4942661;28;20166;-49
2022/01/31 04:02:30;;;;;;;4.55;2.85;;;0.80;99.90;;;;;;4941819;28;21001;-49
2022/01/31 04:04:55;;;;;;;4.65;3.15;;;0.80;99.90;;;;;;4940448;28;20031;-49
2022/01/31 04:07:21;;;;;;;8.93;3.20;;;0.90;99.90;;;;;;4941962;28;20039;-49
2022/01/31 04:09:47;;;;;;;7.28;3.15;;;0.90;99.90;;;;;;4942353;28;20019;-49
2022/01/31 04:12:12;;;;;;;8.35;3.05;;;0.90;99.90;;;;;;4941581;28;20408;-49
2022/01/31 04:14:38;;;;;;;3.60;2.88;;;0.90;99.90;;;;;;4946450;28;20039;-50
2022/01/31 04:17:07;;;;;;;5.88;3.25;;;1.00;99.90;;;;;;4941901;28;20028;-48
2022/01/31 04:19:33;;;;;;;5.65;3.50;;;1.00;99.90;;;;;;4943597;28;20035;-48
2022/01/31 04:21:59;;;;;;;11.77;3.05;;;1.00;99.90;;;;;;4942909;28;20066;-49
2022/01/31 04:24:31;;;;;;;6.00;3.30;;;1.00;99.90;;;;;;4942991;28;20023;-49
2022/01/31 04:26:59;;;;;;;5.25;2.85;;;1.10;99.90;;;;;;4944214;28;20038;-49
2022/01/31 04:29:31;;;;;;;6.38;3.28;;;1.10;99.90;;;;;;4942953;28;20027;-49
2022/01/31 04:31:57;;;;;;;4.72;2.42;;;1.10;99.90;;;;;;4945182;28;20035;-50
2022/01/31 04:34:23;;;;;;;12.77;3.35;;;1.10;99.90;;;;;;4943894;28;20027;-49
2022/01/31 04:36:48;;;;;;;4.70;2.90;;;1.10;99.90;;;;;;4943092;28;20034;-51
2022/01/31 04:39:17;;;;;;;4.32;3.08;;;1.20;99.90;;;;;;4946102;28;20051;-50
2022/01/31 04:41:45;;;;;;;4.97;2.78;;;1.20;99.90;;;;;;4943969;28;20034;-49
2022/01/31 04:44:11;;;;;;;3.95;2.95;;;1.20;99.90;;;;;;4944619;28;20114;-49
2022/01/31 04:46:37;;;;;;;10.48;3.90;;;1.20;99.90;;;;;;4945108;28;20142;-49
2022/01/31 04:49:03;;;;;;;2.47;2.03;;;1.20;99.90;;;;;;4942507;28;20137;-50
2022/01/31 04:51:28;;;;;;;7.00;3.17;;;1.20;99.90;;;;;;4944091;28;20035;-49
2022/01/31 04:53:54;;;;;;;8.13;2.88;;;1.20;99.90;;;;;;4944031;28;20089;-50
2022/01/31 04:56:20;;;;;;;3.08;1.95;;;1.20;99.90;;;;;;4941403;28;20039;-49
2022/01/31 04:58:45;;;;;;;7.25;2.53;;;1.20;99.90;;;;;;4945800;28;20070;-50
2022/01/31 05:01:11;;;;;;;7.60;3.13;;;1.30;99.90;;;;;;4942196;28;20039;-50
2022/01/31 05:03:37;;;;;;;5.20;2.28;;;1.30;99.90;;;;;;4944439;28;20027;-49
2022/01/31 05:06:03;;;;;;;16.05;3.70;;;1.40;99.90;;;;;;4943655;28;20023;-49
2022/01/31 05:08:29;;;;;;;7.38;3.33;;;1.40;99.90;;;;;;4945500;28;20042;-50
2022/01/31 05:10:56;;;;;;;7.22;3.42;;;1.40;99.90;;;;;;4947394;28;20444;-50
2022/01/31 05:13:21;;;;;;;5.65;3.58;;;1.40;99.90;;;;;;4948277;28;20039;-49
2022/01/31 05:15:47;;;;;;;7.05;2.92;;;1.40;99.90;;;;;;4945522;28;20066;-49
2022/01/31 05:18:14;;;;;;;7.90;3.13;;;1.50;99.90;;;;;;4949246;28;20106;-49
2022/01/31 05:20:40;;;;;;;15.43;3.03;;;1.50;99.90;;;;;;4947996;28;20031;-49
2022/01/31 05:23:07;;;;;;;7.25;2.97;;;1.50;99.90;;;;;;4944336;28;20087;-49
2022/01/31 05:25:34;;;;;;;5.72;3.03;;;1.50;99.90;;;;;;4938712;28;20046;-48
2022/01/31 05:27:59;;;;;;;5.85;2.85;;;1.60;99.90;;;;;;4944563;28;20162;-49
2022/01/31 05:30:25;;;;;;;4.13;2.55;;;1.60;99.90;;;;;;4949575;28;20138;-49
2022/01/31 05:32:50;;;;;;;7.82;3.60;;;1.60;99.90;;;;;;4946285;28;20146;-49
2022/01/31 05:35:16;;;;;;;5.78;3.53;;;1.60;99.90;;;;;;4947355;28;20419;-49
2022/01/31 05:37:42;;;;;;;8.00;3.55;;;1.60;99.90;;;;;;4948584;28;20031;-51
2022/01/31 05:40:09;;;;;;;4.78;2.95;;;1.60;99.90;;;;;;4948488;28;20027;-48
2022/01/31 05:42:35;;;;;;;6.88;3.60;;;1.60;99.90;;;;;;4945019;28;20508;-49
2022/01/31 05:45:01;;;;;;;7.30;3.75;;;1.70;99.90;;;;;;4947609;28;20155;-51
2022/01/31 05:47:27;;;;;;;3.88;2.97;;;1.70;99.90;;;;;;4944450;28;20404;-49
2022/01/31 05:49:52;;;;;;;6.03;2.95;;;1.70;99.90;;;;;;4949132;28;20051;-49
2022/01/31 05:52:18;;;;;;;4.57;3.00;;;1.70;99.90;;;;;;4947239;28;20135;-49
2022/01/31 05:54:45;;;;;;;3.60;3.30;;;1.80;99.90;;;;;;4946823;28;20102;-49
2022/01/31 05:57:11;;;;;;;8.02;3.78;;;1.80;99.90;;;;;;4944914;28;20027;-51
2022/01/31 05:59:40;;;;;;;7.25;3.67;;;1.80;99.90;;;;;;4941855;28;20039;-49
2022/01/31 06:02:06;;;;;;;9.30;3.60;;;1.80;99.90;;;;;;4946651;28;20497;-50
2022/01/31 06:04:32;;;;;;;4.55;2.92;;;1.80;99.90;;;;;;4945399;28;20090;-50
2022/01/31 06:06:59;;;;;;;6.75;4.03;;;1.80;99.90;;;;;;4945515;28;21566;-50
2022/01/31 06:09:28;;;;;;;6.15;3.20;;;1.90;99.90;;;;;;4950374;28;20472;-52
2022/01/31 06:11:55;;;;;;;5.68;3.38;;;1.90;99.90;;;;;;4947216;28;20476;-50
2022/01/31 06:14:20;;;;;;;11.07;3.50;;;1.90;99.90;;;;;;4948944;28;20433;-51
2022/01/31 06:16:46;;;;;;;3.88;2.70;;;1.90;99.90;;;;;;4950001;28;20049;-50
2022/01/31 06:19:12;;;;;;;6.78;2.75;;;2.00;99.90;;;;;;4946244;28;20237;-50
2022/01/31 06:21:37;;;;;;;6.80;3.38;;;2.00;99.90;;;;;;4944679;28;20055;-51
2022/01/31 06:24:08;;;;;;;3.17;2.58;;;2.00;99.90;;;;;;4946093;28;20146;-52
2022/01/31 06:26:34;;;;;;;3.47;2.65;;;2.00;99.90;;;;;;4945862;28;20503;-50
2022/01/31 06:29:01;;;;;;;4.72;2.97;;;2.00;99.90;;;;;;4947788;28;20023;-49
2022/01/31 06:31:27;;;;;;;4.65;2.30;;;2.10;99.90;;;;;;4945647;28;20043;-49
2022/01/31 06:33:53;;;;;;;3.38;2.38;;;2.10;99.90;;;;;;4943334;28;20032;-49
2022/01/31 06:36:22;;;;;;;9.80;2.63;;;2.10;99.90;;;;;;4943010;28;20511;-50
2022/01/31 06:38:48;;;;;;;4.97;2.55;;;2.10;99.90;;;;;;4944935;28;20035;-50
2022/01/31 06:41:16;;;;;;;2.42;2.17;;;2.20;99.90;;;;;;4948166;28;20032;-49
2022/01/31 06:43:42;;;;;;;3.13;1.90;;;2.20;99.90;;;;;;4940451;28;20684;-50
2022/01/31 06:46:09;;;;;;;3.08;2.40;;;2.20;99.90;;;;;;4947140;28;21554;-49
2022/01/31 06:48:34;;;;;;;4.18;1.95;;;2.20;99.90;;;;;;4944771;28;20243;-49
2022/01/31 06:51:01;;;;;;;4.32;2.65;;;2.20;99.90;;;;;;4945742;28;20051;-49
2022/01/31 06:53:28;;;;;;;2.28;1.92;;;2.20;99.90;;;;;;4943135;28;20027;-50
2022/01/31 06:55:57;;;;;;;6.30;2.28;;;2.30;99.90;;;;;;4946253;28;20032;-49
2022/01/31 06:58:23;;;;;;;5.43;2.75;;;2.30;99.90;;;;;;4942904;28;20060;-50
2022/01/31 07:00:50;;;;;;;4.22;2.72;;;2.40;99.90;;;;;;4946627;28;20035;-49
2022/01/31 07:03:16;;;;;;;5.15;3.25;;;2.40;99.90;;;;;;4944157;28;20043;-49
2022/01/31 07:05:45;;;;;;;5.47;2.53;;;2.50;99.90;;;;;;4944189;28;20399;-49
2022/01/31 07:08:12;;;;;;;2.30;2.13;;;2.40;99.90;;;;;;4942514;28;20028;-52
2022/01/31 07:10:38;;;;;;;3.67;2.10;;;2.50;99.90;;;;;;4944289;28;20035;-48
2022/01/31 07:13:24;;;;;;;2.05;1.95;;;2.50;99.90;;;;;;4943800;28;20035;-49
2022/01/31 07:15:50;;;;;;;4.40;2.30;;;2.50;99.90;;;;;;4944397;28;20094;-49
2022/01/31 07:18:16;;;;;;;3.47;2.30;;;2.50;99.90;;;;;;4945072;28;20199;-49
2022/01/31 07:20:44;;;;;;;7.35;2.58;;;2.60;99.90;;;;;;4941959;28;20027;-49
2022/01/31 07:23:16;;;;;;;4.70;2.05;;;2.60;99.90;;;;;;4943838;28;20122;-49
2022/01/31 07:25:42;;;;;;;2.25;2.05;;;2.60;99.90;;;;;;4945714;28;20031;-49
2022/01/31 07:28:12;;;;;;;4.53;2.17;;;2.60;99.90;;;;;;4943623;28;20043;-49
2022/01/31 07:30:39;;;;;;;3.85;2.30;;;2.70;99.90;;;;;;4942888;28;20031;-50
2022/01/31 07:33:09;;;;;;;4.15;1.95;;;2.70;99.90;;;;;;4943905;28;20086;-49
2022/01/31 07:35:35;;;;;;;6.00;3.40;;;2.70;99.90;;;;;;4943908;28;20062;-49
2022/01/31 07:38:00;;;;;;;1.70;1.60;;;2.70;99.90;;;;;;4946682;28;20584;-49
2022/01/31 07:40:26;;;;;;;3.47;2.30;;;2.80;99.90;;;;;;4942211;28;20027;-49
2022/01/31 07:42:52;;;;;;;4.70;2.28;;;2.80;99.90;;;;;;4943979;28;20523;-48
2022/01/31 07:45:17;;;;;;;3.33;1.85;;;2.90;99.90;;;;;;4947127;28;20035;-49
2022/01/31 07:47:43;;;;;;;2.60;1.98;;;2.80;99.90;;;;;;4943254;28;20039;-49
2022/01/31 07:50:09;;;;;;;2.83;1.88;;;2.80;99.90;;;;;;4946390;28;20054;-49
2022/01/31 07:52:35;;;;;;;2.67;1.83;;;2.80;99.90;;;;;;4946000;28;20512;-49
2022/01/31 07:55:01;;;;;;;4.65;2.75;;;2.80;99.90;;;;;;4944020;28;20086;-49
2022/01/31 07:57:27;;;;;;;3.35;2.08;;;2.80;99.90;;;;;;4951246;28;20125;-49
2022/01/31 07:59:53;;;;;;;5.28;2.17;;;2.90;99.90;;;;;;4946714;28;20035;-49
2022/01/31 08:02:19;;;;;;;2.35;2.13;;;2.90;99.90;;;;;;4945118;28;20036;-50
2022/01/31 08:04:44;;;;;;;4.88;2.33;;;2.90;99.90;;;;;;4941538;28;21529;-49
2022/01/31 08:07:10;;;;;;;3.35;2.50;;;2.90;99.90;;;;;;4945010;28;20469;-48
2022/01/31 08:09:36;;;;;;;3.15;2.15;;;2.90;99.90;;;;;;4945346;28;20115;-49
2022/01/31 08:12:03;;;;;;;9.35;2.85;;;2.90;99.90;;;;;;4943034;28;20035;-49
2022/01/31 08:14:30;;;;;;;2.38;2.05;;;2.80;99.90;;;;;;4955893;28;20623;-49
2022/01/31 08:16:55;;;;;;;2.88;2.03;;;2.80;99.90;;;;;;4943466;28;20036;-49
2022/01/31 08:19:21;;;;;;;3.42;2.63;;;2.80;99.90;;;;;;4941789;28;20039;-49
2022/01/31 08:21:47;;;;;;;2.65;1.90;;;2.70;99.90;;;;;;4939830;28;20401;-48
2022/01/31 08:24:12;;;;;;;4.25;2.70;;;2.70;99.90;;;;;;4943090;28;20567;-49
2022/01/31 08:26:39;;;;;;;8.20;2.58;;;2.80;99.90;;;;;;4936177;28;20046;-50
2022/01/31 08:29:20;;;;;;;5.10;3.22;;;2.80;99.90;;;;;;4944725;28;20653;-50
2022/01/31 08:31:48;;;;;;;5.10;2.85;;;2.70;99.90;;;;;;4942542;28;20058;-49
2022/01/31 08:36:42;;;;;;;3.03;2.15;;;2.70;99.90;;;;;;4943428;28;20078;-49
2022/01/31 08:39:17;;;;;;;3.43;2.00;;;2.80;99.90;;;;;;4942253;28;20587;-49
2022/01/31 08:41:48;;;;;;;4.60;3.05;;;2.80;99.90;;;;;;4942707;28;20063;-49
2022/01/31 08:44:16;;;;;;;3.20;2.20;;;2.80;99.90;;;;;;4940242;28;20050;-49
2022/01/31 08:46:42;;;;;;;5.80;2.58;;;2.90;99.90;;;;;;4942503;28;20062;-49
2022/01/31 08:49:09;;;;;;;4.93;2.38;;;2.80;99.90;;;;;;4938814;28;20501;-52
2022/01/31 08:51:36;;;;;;;8.52;3.75;;;2.90;99.90;;;;;;4940708;28;20039;-49
2022/01/31 08:54:05;;;;;;;2.72;2.20;;;2.90;99.90;;;;;;4941830;28;20129;-48
2022/01/31 08:56:35;;;;;;;5.97;2.88;;;2.80;99.90;;;;;;4939510;28;20043;-48
2022/01/31 08:59:02;;;;;;;2.88;2.55;;;2.90;99.90;;;;;;4943328;28;20038;-49
2022/01/31 09:01:28;;;;;;;2.95;2.65;;;2.80;99.90;;;;;;4942748;28;20417;-48
2022/01/31 09:06:25;;;;;;;4.28;2.80;;;2.80;99.90;;;;;;4942418;28;20026;-49
2022/01/31 09:08:52;;;;;;;3.00;2.53;;;2.70;99.90;;;;;;4941694;28;20114;-50
2022/01/31 09:11:18;;;;;;;2.60;2.10;;;2.80;99.90;;;;;;4944725;28;20117;-50
2022/01/31 09:13:44;;;;;;;2.53;2.17;;;2.70;99.90;;;;;;4942520;28;20043;-48
2022/01/31 09:16:10;;;;;;;6.38;2.92;;;2.70;99.90;;;;;;4940085;28;20485;-49
2022/01/31 09:18:36;;;;;;;4.10;2.33;;;2.70;99.90;;;;;;4940052;28;20437;-49
2022/01/31 09:21:03;;;;;;;2.33;2.08;;;2.70;99.90;;;;;;4943084;28;20554;-49
2022/01/31 09:23:29;;;;;;;2.72;2.25;;;2.70;99.90;;;;;;4943624;28;20038;-49
2022/01/31 09:25:56;;;;;;;3.55;1.95;;;2.70;99.90;;;;;;4936851;28;20035;-49
2022/01/31 09:28:23;;;;;;;4.20;2.17;;;2.70;99.90;;;;;;4942016;28;20813;-49
2022/01/31 09:30:49;;;;;;;4.47;2.38;;;2.60;99.90;;;;;;4941404;28;20031;-49
2022/01/31 09:33:15;;;;;;;6.15;2.53;;;2.60;99.90;;;;;;4945419;28;20065;-48
2022/01/31 09:35:42;;;;;;;4.82;2.78;;;2.50;99.90;;;;;;4943581;28;20138;-50
2022/01/31 09:38:11;;;;;;;5.55;2.50;;;2.50;99.90;;;;;;4943530;28;20038;-49
2022/01/31 09:40:36;;;;;;;3.03;2.67;;;2.50;99.90;;;;;;4942701;28;20494;-48
2022/01/31 09:48:33;;;;;;;3.17;2.25;;;2.40;99.90;;;;;;4942027;28;20039;-49
2022/01/31 09:51:09;;;;;;;3.00;2.13;;;2.40;99.90;;;;;;4942957;28;20043;-49
2022/01/31 09:53:46;;;;;;;1.90;1.65;;;2.40;99.90;;;;;;4940879;28;20146;-49
2022/01/31 09:56:15;;;;;;;2.13;1.60;;;2.40;99.90;;;;;;4941119;28;20713;-50
2022/01/31 09:58:42;;;;;;;4.55;2.33;;;2.40;99.90;;;;;;4943749;28;20559;-49
2022/01/31 10:01:37;;;;;;;2.60;1.90;;;2.40;99.90;;;;;;4942219;28;20130;-49
2022/01/31 10:04:18;;;;;;;1.60;1.50;;;2.40;99.90;;;;;;4935040;28;20086;-49
2022/01/31 10:06:46;;;;;;;5.55;2.08;;;2.40;99.90;;;;;;4944023;28;20035;-50
2022/01/31 10:09:27;;;;;;;3.45;2.20;;;2.40;99.90;;;;;;4942082;28;20030;-48
2022/01/31 10:12:04;;;;;;;3.30;2.60;;;2.40;99.90;;;;;;4946485;28;20088;-48
2022/01/31 10:17:28;;;;;;;2.42;2.20;;;2.60;99.90;;;;;;4944330;28;20045;-48
2022/01/31 10:19:56;;;;;;;2.72;1.75;;;2.80;99.90;;;;;;4948337;28;20409;-48
2022/01/31 10:22:24;;;;;;;3.13;2.10;;;2.90;99.90;;;;;;4944665;28;20110;-49
2022/01/31 10:24:51;;;;;;;;;;;3.10;99.90;;;;;;4946634;28;20582;-49
2022/01/31 10:27:23;;;;;;;1.80;1.70;;;3.40;99.90;;;;;;4946872;28;20436;-50
2022/01/31 10:29:51;;;;;;;1.70;1.48;;;3.50;99.90;;;;;;4943730;28;20110;-49
2022/01/31 10:32:29;;;;;;;1.25;1.25;;;3.70;99.90;;;;;;4948050;28;20041;-49
2022/01/31 10:34:59;;;;;;;1.45;1.27;;;3.70;99.90;;;;;;4945053;28;20721;-49
2022/01/31 10:37:27;;;;;;;0.93;0.90;;;3.60;99.90;;;;;;4946007;28;20038;-49
2022/01/31 10:56:39;;;;;;;;;;;3.60;99.90;;;;;;4943243;28;20126;-49
2022/01/31 10:59:08;;;;;;;1.73;1.30;;;3.70;99.90;;;;;;4943213;28;19914;-49
2022/01/31 11:01:33;;;;;;;1.05;1.02;;;3.70;99.90;;;;;;4941457;28;20039;-49
2022/01/31 11:04:05;;;;;;;1.20;1.20;;;3.80;99.90;;;;;;4946789;28;20070;-50
2022/01/31 11:06:32;;;;;;;2.97;1.40;;;3.80;99.90;;;;;;4948577;28;20034;-49
2022/01/31 11:09:09;;;;;;;1.40;1.30;;;3.80;99.90;;;;;;4946103;28;20114;-49
2022/01/31 11:11:37;;;;;;;2.35;1.40;;;3.80;99.90;;;;;;4948293;28;20044;-49
2022/01/31 11:14:05;;;;;;;1.35;1.25;;;3.80;99.90;;;;;;4947612;28;21393;-49
2022/01/31 11:16:31;;;;;;;1.20;1.17;;;3.70;99.90;;;;;;4947878;28;20531;-50
2022/01/31 11:19:01;;;;;;;1.33;1.30;;;3.70;99.90;;;;;;4943895;28;20078;-49
2022/01/31 11:21:30;;;;;;;2.40;1.60;;;3.60;99.90;;;;;;4946746;28;20167;-49
2022/01/31 11:24:02;;;;;;;1.40;1.30;;;3.60;99.90;;;;;;4944302;28;20023;-49
2022/01/31 11:26:38;;;;;;;1.42;1.10;;;3.60;99.90;;;;;;4945332;28;20091;-49
2022/01/31 11:29:07;;;;;;;1.05;1.00;;;3.60;99.90;;;;;;4943600;28;20031;-49
2022/01/31 11:31:36;;;;;;;1.20;1.10;;;3.60;99.90;;;;;;4944347;28;20039;-51
2022/01/31 11:34:02;;;;;;;1.17;1.00;;;3.60;99.90;;;;;;4944843;28;20027;-49
2022/01/31 11:36:29;;;;;;;2.05;1.10;;;3.60;99.90;;;;;;4943181;28;20038;-49
2022/01/31 11:38:56;;;;;;;1.55;1.10;;;3.60;99.90;;;;;;4946490;28;20645;-49
2022/01/31 11:41:22;;;;;;;2.88;1.15;;;3.60;99.90;;;;;;4944099;28;20057;-49
2022/01/31 11:43:56;;;;;;;1.10;1.10;;;3.70;99.90;;;;;;4943751;28;20027;-49
2022/01/31 11:46:26;;;;;;;1.45;1.35;;;3.70;99.90;;;;;;4944265;28;20041;-49
2022/01/31 11:48:52;;;;;;;1.02;1.02;;;3.80;99.90;;;;;;4942524;28;20126;-49
2022/01/31 11:51:20;;;;;;;1.30;1.20;;;3.80;99.90;;;;;;4944996;28;20035;-48
2022/01/31 11:53:46;;;;;;;0.82;0.82;;;3.80;99.90;;;;;;4941205;28;20489;-49
2022/01/31 11:56:22;;;;;;;1.40;1.30;;;3.90;99.90;;;;;;4943528;28;20118;-49
2022/01/31 11:58:53;;;;;;;2.00;1.13;;;3.80;99.90;;;;;;4944840;28;20425;-49
2022/01/31 12:01:20;;;;;;;1.00;1.00;;;3.80;99.90;;;;;;4942623;28;20134;-48
2022/01/31 12:04:13;;;;;;;1.10;1.10;;;3.70;99.90;;;;;;4947418;28;20407;-48
2022/01/31 12:06:39;;;;;;;1.27;1.20;;;3.70;99.90;;;;;;4946793;28;20054;-49
2022/01/31 12:09:11;;;;;;;0.88;0.88;;;3.60;99.90;;;;;;4948225;28;20026;-48
2022/01/31 12:12:07;;;;;;;2.78;1.40;;;3.60;99.90;;;;;;4943716;28;20046;-48
2022/01/31 12:14:47;;;;;;;1.00;1.00;;;3.60;99.90;;;;;;4949324;28;20035;-49
2022/01/31 12:17:54;;;;;;;2.42;1.38;;;3.50;99.90;;;;;;4943465;28;20563;-50
2022/01/31 12:21:59;;;;;;;1.50;1.40;;;3.40;99.90;;;;;;4941228;28;20453;-49
2022/01/31 12:23:35;;;;;;;0.90;0.90;;;3.40;99.90;;;;;;4942612;28;20054;-50
2022/01/31 12:26:01;;;;;;;1.77;1.50;;;3.50;99.90;;;;;;4942742;28;20077;-50
2022/01/31 12:28:38;;;;;;;1.23;1.15;;;3.50;99.90;;;;;;4946044;28;20432;-50
2022/01/31 12:31:42;;;;;;;1.40;1.25;;;3.60;99.90;;;;;;4941772;28;20122;-50
2022/01/31 12:34:34;;;;;;;2.33;1.48;;;3.60;99.90;;;;;;4943206;28;20035;-49
2022/01/31 12:37:23;;;;;;;2.47;2.13;;;3.70;99.90;;;;;;4942729;28;20492;-50
2022/01/31 12:39:58;;;;;;;;;;;3.70;99.90;;;;;;4944830;28;20062;-50
2022/01/31 12:45:27;;;;;;;1.13;1.00;;;3.80;99.90;;;;;;4941451;28;20129;-50
2022/01/31 12:48:08;;;;;;;2.85;1.30;;;3.90;99.90;;;;;;4944583;28;20439;-50
2022/01/31 12:50:50;;;;;;;1.25;1.00;;;3.90;99.90;;;;;;4948511;28;20173;-48
2022/01/31 12:56:24;;;;;;;1.33;1.33;;;3.90;99.90;;;;;;4952397;28;20031;-49
2022/01/31 12:59:10;;;;;;;1.05;1.00;;;3.90;99.90;;;;;;4942143;28;20035;-50
2022/01/31 13:01:41;;;;;;;5.22;1.40;;;3.90;99.90;;;;;;4941234;28;20035;-50
2022/01/31 13:04:08;;;;;;;1.83;1.38;;;3.80;99.90;;;;;;4942301;28;20424;-49
2022/01/31 13:06:36;;;;;;;2.47;1.40;;;3.90;99.90;;;;;;4943544;28;20035;-50
2022/01/31 13:09:29;;;;;;;1.08;1.02;;;3.90;99.90;;;;;;4942785;28;20035;-49
2022/01/31 13:11:59;;;;;;;1.02;0.95;;;3.90;99.90;;;;;;4942717;28;20416;-49
2022/01/31 13:14:27;;;;;;;1.55;1.45;;;3.90;99.90;;;;;;4944421;28;20059;-49
2022/01/31 13:17:00;;;;;;;1.48;1.20;;;3.90;99.90;;;;;;4943107;28;20087;-49
2022/01/31 13:19:28;;;;;;;1.50;1.20;;;3.90;99.90;;;;;;4943691;28;20384;-49
2022/01/31 13:21:56;;;;;;;0.95;0.90;;;3.80;99.90;;;;;;4943079;28;20086;-49
2022/01/31 13:24:39;;;;;;;1.23;1.13;;;3.80;99.90;;;;;;4942224;28;20041;-49
2022/01/31 13:27:07;;;;;;;1.13;1.00;;;3.80;99.90;;;;;;4942305;28;20035;-49
2022/01/31 13:29:35;;;;;;;1.73;1.17;;;3.80;99.90;;;;;;4942935;28;20031;-49
2022/01/31 13:32:21;;;;;;;1.13;1.02;;;3.80;99.90;;;;;;4944140;28;20103;-49
2022/01/31 13:35:15;;;;;;;1.65;1.00;;;3.80;99.90;;;;;;4940188;28;20118;-49
2022/01/31 13:37:53;;;;;;;0.80;0.80;;;3.80;99.90;;;;;;4938888;28;20035;-49
2022/01/31 13:40:22;;;;;;;1.48;1.10;;;3.80;99.90;;;;;;4941525;28;20050;-49
2022/01/31 13:43:01;;;;;;;;;;;3.70;99.90;;;;;;4942031;28;20071;-49